Time;durP1;ratioP1;P1;durP2;ratioP2;P2;SDS_P1;SDS_P2;PMS_P1;PMS_P2;Temp;Humidity;BMP_temperature;BMP_pressure;BME280_temperature;BME280_humidity;BME280_pressure;Samples;Min_cycle;Max_cycle;Signal;HPM_P1;HPM_P2
2021/12/12 00:01:39;;;;;;;40.28;16.45;;;;;;;;;;4925269;29;20035;-84
2021/12/12 00:04:13;;;;;;;43.97;19.42;;;;;;;;;;4924245;29;20038;-83
2021/12/12 00:06:57;;;;;;;44.33;16.77;;;;;;;;;;4908416;29;20492;-83
2021/12/12 00:09:27;;;;;;;29.92;11.35;;;;;;;;;;4922558;28;20127;-83
2021/12/12 00:12:03;;;;;;;29.35;12.02;;;;;;;;;;4904829;29;20119;-83
2021/12/12 00:14:31;;;;;;;;;;;;;;;;;;4902451;29;20694;-84
2021/12/12 00:17:03;;;;;;;44.00;18.10;;;;;;;;;;4923714;29;20405;-84
2021/12/12 00:19:34;;;;;;;57.17;19.92;;;;;;;;;;4905018;29;21539;-84
2021/12/12 00:22:09;;;;;;;56.65;17.67;;;;;;;;;;4907598;29;20047;-84
2021/12/12 00:24:38;;;;;;;42.97;17.15;;;;;;;;;;4894165;29;20127;-83
2021/12/12 00:27:11;;;;;;;36.55;15.82;;;;;;;;;;4909091;29;20046;-83
2021/12/12 00:29:43;;;;;;;47.70;19.75;;;;;;;;;;4905324;29;20055;-84
2021/12/12 00:32:13;;;;;;;48.15;20.15;;;;;;;;;;4919724;29;20091;-83
2021/12/12 00:34:51;;;;;;;53.10;22.02;;;;;;;;;;4924000;29;20032;-84
2021/12/12 00:37:21;;;;;;;49.00;17.35;;;;;;;;;;4916280;29;20048;-83
2021/12/12 00:39:53;;;;;;;41.53;19.15;;;;;;;;;;4908592;29;20030;-82
2021/12/12 00:42:27;;;;;;;50.20;21.95;;;;;;;;;;4907360;29;20032;-84
2021/12/12 00:45:02;;;;;;;43.53;18.92;;;;;;;;;;4906470;29;20032;-84
2021/12/12 00:47:38;;;;;;;52.55;20.85;;;;;;;;;;4903241;29;20330;-84
2021/12/12 00:50:13;;;;;;;48.97;18.23;;;;;;;;;;4909358;29;20058;-84
2021/12/12 00:52:44;;;;;;;54.63;20.02;;;;;;;;;;4903510;29;20597;-83
2021/12/12 00:55:19;;;;;;;55.80;21.98;;;;;;;;;;4917378;29;20039;-83
2021/12/12 00:57:53;;;;;;;51.13;20.10;;;;;;;;;;4906325;29;20056;-84
2021/12/12 01:00:24;;;;;;;31.38;11.68;;;;;;;;;;4914426;29;20050;-83
2021/12/12 01:02:53;;;;;;;56.25;20.83;;;;;;;;;;4900212;29;20047;-84
2021/12/12 01:05:24;;;;;;;47.78;21.00;;;;;;;;;;4916890;29;20048;-84
2021/12/12 01:07:53;;;;;;;59.00;19.52;;;;;;;;;;4920546;28;20038;-84
2021/12/12 01:10:29;;;;;;;40.20;16.20;;;;;;;;;;4925772;29;20062;-84
2021/12/12 01:12:59;;;;;;;49.85;20.80;;;;;;;;;;4908651;29;20521;-83
2021/12/12 01:15:34;;;;;;;53.83;21.25;;;;;;;;;;4921843;29;20035;-83
2021/12/12 01:18:07;;;;;;;62.45;24.40;;;;;;;;;;4908136;29;20091;-84
2021/12/12 01:20:39;;;;;;;63.42;19.85;;;;;;;;;;4911842;29;20496;-84
2021/12/12 01:23:13;;;;;;;55.25;22.88;;;;;;;;;;4908765;29;20040;-84
2021/12/12 01:25:45;;;;;;;42.67;16.33;;;;;;;;;;4909268;29;20078;-84
2021/12/12 01:28:16;;;;;;;65.13;23.67;;;;;;;;;;4914604;29;20515;-84
2021/12/12 01:30:43;;;;;;;30.10;11.90;;;;;;;;;;4909950;29;20512;-83
2021/12/12 01:33:21;;;;;;;60.70;21.55;;;;;;;;;;4906116;29;20115;-83
2021/12/12 01:35:57;;;;;;;18.42;8.40;;;;;;;;;;4908423;29;20031;-84
2021/12/12 01:41:14;;;;;;;51.55;19.52;;;;;;;;;;4926265;29;20106;-83
2021/12/12 01:43:45;;;;;;;44.90;17.73;;;;;;;;;;4928908;29;20091;-83
2021/12/12 01:46:20;;;;;;;39.90;15.20;;;;;;;;;;4922587;29;20415;-83
2021/12/12 01:48:52;;;;;;;22.88;10.55;;;;;;;;;;4923450;29;20508;-84
2021/12/12 01:51:22;;;;;;;26.92;10.73;;;;;;;;;;4927094;29;20039;-83
2021/12/12 01:53:49;;;;;;;55.58;22.08;;;;;;;;;;4920587;29;20156;-83
2021/12/12 01:56:23;;;;;;;33.70;13.55;;;;;;;;;;4908220;29;20146;-83
2021/12/12 01:58:53;;;;;;;46.95;18.88;;;;;;;;;;4907336;29;20067;-83
2021/12/12 02:01:30;;;;;;;32.55;12.02;;;;;;;;;;4903053;29;20575;-83
2021/12/12 02:04:08;;;;;;;57.42;14.80;;;;;;;;;;4920319;29;21182;-83
2021/12/12 02:06:36;;;;;;;41.13;16.58;;;;;;;;;;4907280;29;20460;-83
2021/12/12 02:09:10;;;;;;;60.35;18.90;;;;;;;;;;4920753;28;20052;-84
2021/12/12 02:11:38;;;;;;;35.03;14.57;;;;;;;;;;4921362;29;20038;-83
2021/12/12 02:14:11;;;;;;;45.45;16.88;;;;;;;;;;4908615;29;20039;-84
2021/12/12 02:16:46;;;;;;;59.13;21.30;;;;;;;;;;4924743;29;20084;-84
2021/12/12 02:19:16;;;;;;;61.45;21.98;;;;;;;;;;4923418;29;20032;-84
2021/12/12 02:36:02;;;;;;;58.95;20.73;;;;;;;;;;4926833;29;20043;-83
2021/12/12 02:38:31;;;;;;;67.28;22.15;;;;;;;;;;4904766;29;20040;-82
2021/12/12 02:41:00;;;;;;;57.15;23.98;;;;;;;;;;4911014;29;20044;-82
2021/12/12 02:43:30;;;;;;;52.22;17.50;;;;;;;;;;4908631;29;20084;-82
2021/12/12 02:45:59;;;;;;;62.38;21.55;;;;;;;;;;4906663;29;20099;-82
2021/12/12 02:48:37;;;;;;;62.80;22.50;;;;;;;;;;4922313;29;20032;-82
2021/12/12 02:51:07;;;;;;;67.40;23.85;;;;;;;;;;4922946;29;20381;-82
2021/12/12 02:53:45;;;;;;;44.53;14.05;;;;;;;;;;4909384;29;20070;-82
2021/12/12 02:56:15;;;;;;;63.42;20.42;;;;;;;;;;4902319;29;20036;-82
2021/12/12 02:58:48;;;;;;;39.15;15.02;;;;;;;;;;4911087;29;20658;-83
2021/12/12 03:01:30;;;;;;;16.15;7.15;;;;;;;;;;4922473;29;20092;-82
2021/12/12 03:03:58;;;;;;;33.15;13.00;;;;;;;;;;4906140;29;20122;-83
2021/12/12 03:06:30;;;;;;;38.10;15.13;;;;;;;;;;4911412;29;20550;-83
2021/12/12 03:09:15;;;;;;;32.08;11.90;;;;;;;;;;4904739;28;20479;-83
2021/12/12 03:11:49;;;;;;;62.80;22.55;;;;;;;;;;4925425;29;20161;-83
2021/12/12 03:14:21;;;;;;;30.83;11.40;;;;;;;;;;4919603;29;20034;-83
2021/12/12 03:16:57;;;;;;;51.53;19.27;;;;;;;;;;4926482;29;20036;-83
2021/12/12 03:19:27;;;;;;;32.70;12.73;;;;;;;;;;4914046;29;20078;-84
2021/12/12 03:21:56;;;;;;;52.55;17.48;;;;;;;;;;4913192;29;20166;-84
2021/12/12 03:24:26;;;;;;;56.05;19.90;;;;;;;;;;4925809;29;20067;-83
2021/12/12 03:26:57;;;;;;;45.83;17.98;;;;;;;;;;4908939;29;20029;-84
2021/12/12 03:29:27;;;;;;;41.08;13.25;;;;;;;;;;4927804;29;20024;-84
2021/12/12 03:31:59;;;;;;;35.03;11.50;;;;;;;;;;4921923;29;20035;-83
2021/12/12 03:34:34;;;;;;;31.85;13.13;;;;;;;;;;4926788;29;20519;-84
2021/12/12 03:37:05;;;;;;;15.25;6.72;;;;;;;;;;4906492;29;20100;-84
2021/12/12 03:39:35;;;;;;;33.78;10.73;;;;;;;;;;4909492;29;20412;-85
2021/12/12 03:42:07;;;;;;;30.15;10.23;;;;;;;;;;4926576;29;20028;-84
2021/12/12 03:44:37;;;;;;;46.50;14.90;;;;;;;;;;4909570;29;20559;-84
2021/12/12 03:47:14;;;;;;;39.13;15.52;;;;;;;;;;4924131;29;20047;-83
2021/12/12 03:49:41;;;;;;;28.25;11.80;;;;;;;;;;4901070;29;20046;-84
2021/12/12 03:52:13;;;;;;;39.70;14.57;;;;;;;;;;4907702;29;20050;-84
2021/12/12 03:54:42;;;;;;;33.17;9.57;;;;;;;;;;4911955;29;20047;-84
2021/12/12 03:57:17;;;;;;;29.00;11.40;;;;;;;;;;4908842;29;20054;-84
2021/12/12 03:59:45;;;;;;;15.73;5.97;;;;;;;;;;4910991;29;20042;-83
2021/12/12 04:02:12;;;;;;;22.98;6.80;;;;;;;;;;4911331;29;20290;-83
2021/12/12 04:04:42;;;;;;;34.33;10.50;;;;;;;;;;4923563;29;20075;-83
2021/12/12 04:07:21;;;;;;;20.42;7.88;;;;;;;;;;4920282;29;20036;-84
2021/12/12 04:09:49;;;;;;;32.28;11.20;;;;;;;;;;4924062;28;20078;-83
2021/12/12 04:12:16;;;;;;;24.08;11.05;;;;;;;;;;4907354;29;20076;-84
2021/12/12 04:14:46;;;;;;;37.83;13.35;;;;;;;;;;4907550;29;20042;-83
2021/12/12 04:17:16;;;;;;;14.65;6.90;;;;;;;;;;4925860;29;20067;-83
2021/12/12 04:19:48;;;;;;;37.45;12.25;;;;;;;;;;4925151;29;20058;-83
2021/12/12 04:22:15;;;;;;;32.22;11.60;;;;;;;;;;4922420;29;20026;-83
2021/12/12 04:24:45;;;;;;;18.35;8.07;;;;;;;;;;4926472;29;20405;-83
2021/12/12 04:27:15;;;;;;;21.50;8.48;;;;;;;;;;4918914;29;20054;-83
2021/12/12 04:29:49;;;;;;;21.63;8.02;;;;;;;;;;4910662;29;20051;-83
2021/12/12 04:32:20;;;;;;;28.17;11.27;;;;;;;;;;4916857;29;20539;-83
2021/12/12 04:34:55;;;;;;;15.73;6.03;;;;;;;;;;4922023;29;20251;-83
2021/12/12 04:37:27;;;;;;;18.30;6.25;;;;;;;;;;4906156;29;20522;-83
2021/12/12 04:39:57;;;;;;;18.83;9.65;;;;;;;;;;4911797;29;20099;-83
2021/12/12 04:42:33;;;;;;;7.93;4.47;;;;;;;;;;4920371;29;20496;-84
2021/12/12 04:45:18;;;;;;;20.67;9.70;;;;;;;;;;4902794;29;20040;-83
2021/12/12 04:50:46;;;;;;;8.32;4.20;;;;;;;;;;4921686;29;20087;-83
2021/12/12 04:53:21;;;;;;;19.95;8.57;;;;;;;;;;4897252;29;20142;-82
2021/12/12 04:56:12;;;;;;;12.45;6.47;;;;;;;;;;4905579;29;20047;-84
2021/12/12 04:58:49;;;;;;;24.33;9.60;;;;;;;;;;4906472;29;20415;-83
2021/12/12 05:01:22;;;;;;;9.98;5.32;;;;;;;;;;4910316;29;20106;-83
2021/12/12 05:04:01;;;;;;;20.63;9.93;;;;;;;;;;4902324;29;20526;-83
2021/12/12 05:06:32;;;;;;;21.20;8.73;;;;;;;;;;4924667;29;20080;-83
2021/12/12 05:09:08;;;;;;;26.90;10.32;;;;;;;;;;4921376;28;20059;-83
2021/12/12 05:11:36;;;;;;;17.92;8.10;;;;;;;;;;4922227;29;20522;-83
2021/12/12 05:14:11;;;;;;;17.63;8.95;;;;;;;;;;4906010;29;21841;-83
2021/12/12 05:16:42;;;;;;;17.95;7.72;;;;;;;;;;4918746;29;20043;-83
2021/12/12 05:19:19;;;;;;;14.23;4.30;;;;;;;;;;4922753;29;20491;-83
2021/12/12 05:21:56;;;;;;;16.70;6.50;;;;;;;;;;4906477;29;20037;-83
2021/12/12 05:24:28;;;;;;;9.90;4.53;;;;;;;;;;4927040;29;20038;-83
2021/12/12 05:27:00;;;;;;;20.10;8.55;;;;;;;;;;4903777;29;20042;-83
2021/12/12 05:29:32;;;;;;;13.85;4.57;;;;;;;;;;4908584;29;20095;-83
2021/12/12 05:32:01;;;;;;;22.13;7.45;;;;;;;;;;4902759;29;20147;-83
2021/12/12 05:34:31;;;;;;;11.75;6.55;;;;;;;;;;4913049;29;20075;-84
2021/12/12 05:37:07;;;;;;;9.80;4.32;;;;;;;;;;4924017;29;20920;-84
2021/12/12 05:39:37;;;;;;;15.13;7.60;;;;;;;;;;4905613;29;20178;-83
2021/12/12 05:42:11;;;;;;;17.52;8.70;;;;;;;;;;4919623;29;20293;-84
2021/12/12 05:44:42;;;;;;;15.57;7.85;;;;;;;;;;4923578;29;20036;-84
2021/12/12 05:47:11;;;;;;;12.90;6.28;;;;;;;;;;4920850;29;20369;-85
2021/12/12 05:49:46;;;;;;;10.95;5.03;;;;;;;;;;4909738;29;20044;-84
2021/12/12 05:52:17;;;;;;;16.98;7.97;;;;;;;;;;4909187;29;20040;-84
2021/12/12 05:54:46;;;;;;;12.00;6.10;;;;;;;;;;4906506;29;20138;-84
2021/12/12 05:57:13;;;;;;;18.88;7.18;;;;;;;;;;4924205;29;20140;-83
2021/12/12 05:59:45;;;;;;;14.55;7.15;;;;;;;;;;4911022;29;20091;-83
2021/12/12 06:02:13;;;;;;;15.77;7.20;;;;;;;;;;4929052;29;20657;-83
2021/12/12 06:04:42;;;;;;;16.38;6.93;;;;;;;;;;4911673;29;20051;-83
2021/12/12 06:07:11;;;;;;;11.85;5.72;;;;;;;;;;4912211;29;20439;-83
2021/12/12 06:09:52;;;;;;;10.35;4.78;;;;;;;;;;4905037;28;20055;-83
2021/12/12 06:12:20;;;;;;;8.90;2.75;;;;;;;;;;4897241;29;20120;-84
2021/12/12 06:14:47;;;;;;;18.60;8.80;;;;;;;;;;4910501;29;20511;-83
2021/12/12 06:17:16;;;;;;;12.32;6.45;;;;;;;;;;4893174;29;20044;-84
2021/12/12 06:19:43;;;;;;;9.07;5.05;;;;;;;;;;4906269;29;20124;-84
2021/12/12 06:22:10;;;;;;;15.07;7.50;;;;;;;;;;4895327;29;20391;-83
2021/12/12 06:24:37;;;;;;;10.57;6.32;;;;;;;;;;4905639;29;20384;-83
2021/12/12 06:27:07;;;;;;;10.20;6.35;;;;;;;;;;4907358;29;20404;-82
2021/12/12 06:29:34;;;;;;;13.85;5.35;;;;;;;;;;4891005;29;20036;-84
2021/12/12 06:32:01;;;;;;;11.13;5.75;;;;;;;;;;4905839;29;20548;-84
2021/12/12 06:34:29;;;;;;;11.88;5.95;;;;;;;;;;4904458;29;20865;-84
2021/12/12 06:36:57;;;;;;;11.55;5.95;;;;;;;;;;4908900;29;20166;-83
2021/12/12 06:39:26;;;;;;;13.70;6.75;;;;;;;;;;4908652;29;20688;-83
2021/12/12 06:41:54;;;;;;;14.60;6.15;;;;;;;;;;4891241;29;20079;-84
2021/12/12 06:44:21;;;;;;;8.38;3.83;;;;;;;;;;4904737;29;20875;-84
2021/12/12 06:46:49;;;;;;;10.32;5.43;;;;;;;;;;4891349;29;20462;-84
2021/12/12 06:49:20;;;;;;;11.32;5.45;;;;;;;;;;4905875;29;20578;-84
2021/12/12 06:51:52;;;;;;;5.43;3.47;;;;;;;;;;4911063;29;20430;-84
2021/12/12 06:54:23;;;;;;;14.95;4.38;;;;;;;;;;4901545;29;20055;-85
2021/12/12 06:56:55;;;;;;;22.25;9.65;;;;;;;;;;4894459;29;20657;-85
2021/12/12 06:59:22;;;;;;;14.00;6.57;;;;;;;;;;4909199;29;20074;-85
2021/12/12 07:01:49;;;;;;;18.50;6.65;;;;;;;;;;4897746;29;20021;-85
2021/12/12 07:04:18;;;;;;;3.85;2.15;;;;;;;;;;4909708;29;20501;-85
2021/12/12 07:06:53;;;;;;;13.80;6.07;;;;;;;;;;4901578;29;20059;-85
2021/12/12 07:09:21;;;;;;;6.90;3.80;;;;;;;;;;4909700;28;20488;-85
2021/12/12 07:11:50;;;;;;;11.73;5.57;;;;;;;;;;4903863;29;20063;-84
2021/12/12 07:14:17;;;;;;;12.85;6.50;;;;;;;;;;4912883;29;20582;-84
2021/12/12 07:16:45;;;;;;;6.97;3.83;;;;;;;;;;4910054;29;20040;-85
2021/12/12 07:19:16;;;;;;;16.73;7.80;;;;;;;;;;4925986;29;20027;-84
2021/12/12 07:21:45;;;;;;;15.88;7.22;;;;;;;;;;4900309;29;20127;-84
2021/12/12 07:24:15;;;;;;;18.15;6.75;;;;;;;;;;4912260;29;20555;-85
2021/12/12 07:26:42;;;;;;;14.23;6.75;;;;;;;;;;4907407;29;20035;-84
2021/12/12 07:29:10;;;;;;;13.38;5.88;;;;;;;;;;4926328;29;20028;-85
2021/12/12 07:31:40;;;;;;;7.72;4.13;;;;;;;;;;4928610;29;20458;-85
2021/12/12 07:34:11;;;;;;;10.35;5.55;;;;;;;;;;4911929;29;20035;-85
2021/12/12 07:36:41;;;;;;;19.40;9.10;;;;;;;;;;4906144;29;20048;-84
2021/12/12 07:39:14;;;;;;;7.38;4.07;;;;;;;;;;4902928;29;20063;-84
2021/12/12 07:41:43;;;;;;;6.15;3.17;;;;;;;;;;4926123;29;20492;-85
2021/12/12 07:44:13;;;;;;;17.25;7.53;;;;;;;;;;4904306;29;20562;-85
2021/12/12 07:46:48;;;;;;;9.35;4.72;;;;;;;;;;4909312;29;20115;-85
2021/12/12 07:49:16;;;;;;;21.52;8.55;;;;;;;;;;4906565;29;20059;-85
2021/12/12 07:51:43;;;;;;;23.85;9.90;;;;;;;;;;4909299;29;20050;-85
2021/12/12 07:54:13;;;;;;;10.20;3.92;;;;;;;;;;4926935;29;20036;-85
2021/12/12 07:56:43;;;;;;;16.38;7.85;;;;;;;;;;4905859;29;20043;-85
2021/12/12 07:59:12;;;;;;;20.40;8.57;;;;;;;;;;4909625;29;20500;-84
2021/12/12 08:01:41;;;;;;;10.88;5.32;;;;;;;;;;4924560;29;20419;-85
2021/12/12 08:04:14;;;;;;;21.25;7.50;;;;;;;;;;4910840;29;23132;-85
2021/12/12 08:06:42;;;;;;;3.30;2.35;;;;;;;;;;4906437;29;20729;-84
2021/12/12 08:09:12;;;;;;;14.15;6.47;;;;;;;;;;4909918;28;20042;-85
2021/12/12 08:11:41;;;;;;;8.18;4.28;;;;;;;;;;4912954;29;20050;-85
2021/12/12 08:14:10;;;;;;;17.42;6.80;;;;;;;;;;4926143;29;20505;-85
2021/12/12 08:16:37;;;;;;;11.50;5.97;;;;;;;;;;4925805;29;20059;-85
2021/12/12 08:19:06;;;;;;;22.15;10.07;;;;;;;;;;4905033;29;20048;-85
2021/12/12 08:21:36;;;;;;;14.05;5.03;;;;;;;;;;4913720;29;20047;-85
2021/12/12 08:24:06;;;;;;;7.60;3.35;;;;;;;;;;4909055;29;20148;-85
2021/12/12 08:26:37;;;;;;;25.85;9.75;;;;;;;;;;4925523;29;20488;-84
2021/12/12 08:29:11;;;;;;;26.45;9.65;;;;;;;;;;4905674;29;20048;-85
2021/12/12 08:31:41;;;;;;;25.17;9.57;;;;;;;;;;4923583;29;20075;-85
2021/12/12 08:34:12;;;;;;;13.63;5.47;;;;;;;;;;4910944;29;20044;-84
2021/12/12 08:36:42;;;;;;;20.55;8.25;;;;;;;;;;4912183;29;20050;-85
2021/12/12 08:39:10;;;;;;;28.52;10.45;;;;;;;;;;4923332;29;20040;-85
2021/12/12 08:41:43;;;;;;;18.75;7.38;;;;;;;;;;4907471;29;20039;-85
2021/12/12 08:44:14;;;;;;;36.85;11.27;;;;;;;;;;4912649;29;20075;-85
2021/12/12 08:46:41;;;;;;;38.38;12.77;;;;;;;;;;4907569;29;20036;-85
2021/12/12 08:49:11;;;;;;;40.33;12.23;;;;;;;;;;4924849;29;20083;-85
2021/12/12 08:51:40;;;;;;;57.58;21.70;;;;;;;;;;4918173;29;20040;-84
2021/12/12 08:54:23;;;;;;;49.60;16.23;;;;;;;;;;4909646;29;20040;-84
2021/12/12 08:56:55;;;;;;;27.70;9.50;;;;;;;;;;4909618;29;20083;-85
2021/12/12 08:59:24;;;;;;;28.83;9.82;;;;;;;;;;4908790;29;20048;-85
2021/12/12 09:01:55;;;;;;;37.83;13.50;;;;;;;;;;4909185;29;20035;-85
2021/12/12 09:04:22;;;;;;;50.15;15.13;;;;;;;;;;4921750;29;20066;-85
2021/12/12 09:06:58;;;;;;;12.88;5.93;;;;;;;;;;4906481;29;20044;-85
2021/12/12 09:09:30;;;;;;;40.70;11.80;;;;;;;;;;4908391;28;20055;-85
2021/12/12 09:12:13;;;;;;;43.38;13.80;;;;;;;;;;4908164;29;20091;-85
2021/12/12 09:14:42;;;;;;;57.00;16.30;;;;;;;;;;4907196;29;20043;-84
2021/12/12 09:17:16;;;;;;;42.42;13.82;;;;;;;;;;4918251;29;20070;-85
2021/12/12 09:19:49;;;;;;;36.83;10.85;;;;;;;;;;4915556;29;20691;-85
2021/12/12 09:22:31;;;;;;;31.17;9.85;;;;;;;;;;4908935;29;20746;-85
2021/12/12 09:25:17;;;;;;;58.97;16.10;;;;;;;;;;4919773;29;20532;-84
2021/12/12 09:27:46;;;;;;;43.50;14.75;;;;;;;;;;4925167;29;20028;-84
2021/12/12 09:30:17;;;;;;;51.53;14.35;;;;;;;;;;4921901;29;20043;-85
2021/12/12 09:32:57;;;;;;;47.03;14.93;;;;;;;;;;4908400;29;20044;-85
2021/12/12 09:35:38;;;;;;;24.35;9.02;;;;;;;;;;4930961;29;20186;-85
2021/12/12 09:38:11;;;;;;;25.30;9.15;;;;;;;;;;4914822;29;20090;-84
2021/12/12 09:40:38;;;;;;;49.90;15.65;;;;;;;;;;4927287;29;20042;-85
2021/12/12 09:43:24;;;;;;;43.85;12.05;;;;;;;;;;4904835;29;20066;-84
2021/12/12 09:46:00;;;;;;;59.08;16.10;;;;;;;;;;4913111;29;20481;-84
2021/12/12 09:51:48;;;;;;;50.65;15.00;;;;;;;;;;4925675;29;20451;-85
2021/12/12 09:54:41;;;;;;;32.83;8.43;;;;;;;;;;4882605;29;20031;-84
2021/12/12 09:57:17;;;;;;;49.35;16.17;;;;;;;;;;4901455;29;20028;-85
2021/12/12 09:59:58;;;;;;;35.25;11.05;;;;;;;;;;4922194;29;20048;-85
2021/12/12 10:02:47;;;;;;;46.85;13.52;;;;;;;;;;4921609;29;20090;-86
2021/12/12 10:05:15;;;;;;;70.75;18.48;;;;;;;;;;4906804;29;20518;-85
2021/12/12 10:08:05;;;;;;;74.93;20.00;;;;;;;;;;4909726;29;20039;-86
2021/12/12 10:10:45;;;;;;;84.28;21.80;;;;;;;;;;4926503;28;20055;-86
2021/12/12 10:13:27;;;;;;;90.68;21.25;;;;;;;;;;4912706;29;20078;-86
2021/12/12 10:15:58;;;;;;;37.63;10.57;;;;;;;;;;4923633;29;20041;-86
2021/12/12 10:18:50;;;;;;;56.95;17.02;;;;;;;;;;4910476;29;20083;-86
2021/12/12 10:21:30;;;;;;;75.22;19.50;;;;;;;;;;4921890;29;20559;-86
2021/12/12 10:24:15;;;;;;;94.00;23.08;;;;;;;;;;4907475;29;20035;-85
2021/12/12 10:26:47;;;;;;;84.47;21.40;;;;;;;;;;4923844;29;20059;-85
2021/12/12 10:29:18;;;;;;;71.80;19.55;;;;;;;;;;4924584;29;20035;-86
2021/12/12 10:31:57;;;;;;;100.25;25.35;;;;;;;;;;4904816;29;20040;-86
2021/12/12 10:34:28;;;;;;;64.18;15.57;;;;;;;;;;4921769;29;20496;-86
2021/12/12 10:37:09;;;;;;;50.70;14.57;;;;;;;;;;4921459;29;20408;-86
2021/12/12 10:39:38;;;;;;;86.93;20.88;;;;;;;;;;4905157;29;20050;-85
2021/12/12 10:42:09;;;;;;;92.93;24.20;;;;;;;;;;4918531;29;20063;-86
2021/12/12 10:44:57;;;;;;;91.05;24.17;;;;;;;;;;4923499;29;20500;-86
2021/12/12 10:47:23;;;;;;;69.95;19.98;;;;;;;;;;4913191;29;20039;-85
2021/12/12 10:49:55;;;;;;;70.68;18.63;;;;;;;;;;4907607;29;20032;-86
2021/12/12 10:52:42;;;;;;;77.55;17.55;;;;;;;;;;4910254;29;20119;-86
2021/12/12 10:55:30;;;;;;;61.30;17.77;;;;;;;;;;4919634;29;20050;-86
2021/12/12 10:58:36;;;;;;;77.90;19.17;;;;;;;;;;4907231;29;20031;-86
2021/12/12 11:01:13;;;;;;;68.57;18.40;;;;;;;;;;4853631;29;20041;-86
2021/12/12 11:03:47;;;;;;;74.57;18.60;;;;;;;;;;4851582;29;20033;-85
2021/12/12 11:06:17;;;;;;;66.60;19.00;;;;;;;;;;4881038;29;20052;-85
2021/12/12 11:08:51;;;;;;;61.53;15.88;;;;;;;;;;4920046;29;20067;-86
2021/12/12 11:11:30;;;;;;;84.00;21.50;;;;;;;;;;4909898;28;20047;-86
2021/12/12 11:14:24;;;;;;;55.90;16.45;;;;;;;;;;4923473;29;20484;-86
2021/12/12 11:17:05;;;;;;;86.32;21.83;;;;;;;;;;4909397;29;20051;-85
2021/12/12 11:19:36;;;;;;;46.50;12.30;;;;;;;;;;4902658;29;20082;-86
2021/12/12 11:22:06;;;;;;;78.43;20.20;;;;;;;;;;4922894;29;20119;-85
2021/12/12 11:24:38;;;;;;;95.85;22.35;;;;;;;;;;4907258;29;20123;-86
2021/12/12 11:27:10;;;;;;;41.88;11.07;;;;;;;;;;4923322;29;20365;-85
2021/12/12 11:29:40;;;;;;;46.33;12.10;;;;;;;;;;4909347;29;20483;-86
2021/12/12 11:32:11;;;;;;;63.47;16.63;;;;;;;;;;4922303;29;20066;-85
2021/12/12 11:34:41;;;;;;;71.78;17.55;;;;;;;;;;4908997;29;20087;-85
2021/12/12 11:37:19;;;;;;;52.38;16.08;;;;;;;;;;4919293;29;20046;-85
2021/12/12 11:39:47;;;;;;;53.15;11.85;;;;;;;;;;4906974;29;20106;-87
2021/12/12 11:42:28;;;;;;;75.75;18.52;;;;;;;;;;4925033;29;20031;-86
2021/12/12 11:45:06;;;;;;;25.20;8.68;;;;;;;;;;4922351;29;20543;-86
2021/12/12 11:47:47;;;;;;;59.40;17.55;;;;;;;;;;4909301;29;20028;-85
2021/12/12 11:50:46;;;;;;;36.78;11.60;;;;;;;;;;4907076;29;20047;-85
2021/12/12 11:53:14;;;;;;;73.53;19.23;;;;;;;;;;4884121;29;20078;-85
2021/12/12 11:55:43;;;;;;;70.65;18.52;;;;;;;;;;4911537;29;20747;-86
2021/12/12 11:58:27;;;;;;;55.67;13.25;;;;;;;;;;4914117;29;20036;-85
2021/12/12 12:01:09;;;;;;;63.30;16.50;;;;;;;;;;4904297;29;20051;-86
2021/12/12 12:03:44;;;;;;;64.47;16.23;;;;;;;;;;4925242;29;20032;-86
2021/12/12 12:06:30;;;;;;;31.77;8.85;;;;;;;;;;4904905;29;20038;-85
2021/12/12 12:09:15;;;;;;;71.07;17.63;;;;;;;;;;4900412;29;20056;-85
2021/12/12 12:11:56;;;;;;;78.63;20.08;;;;;;;;;;4926325;28;20723;-85
2021/12/12 12:14:28;;;;;;;57.30;13.80;;;;;;;;;;4918227;29;20052;-86
2021/12/12 12:17:05;;;;;;;53.47;14.82;;;;;;;;;;4922511;29;20035;-85
2021/12/12 12:19:39;;;;;;;38.40;12.65;;;;;;;;;;4917635;29;20051;-86
2021/12/12 12:22:13;;;;;;;89.57;23.48;;;;;;;;;;4917448;29;20090;-85
2021/12/12 12:25:01;;;;;;;54.17;16.35;;;;;;;;;;4904013;29;20082;-86
2021/12/12 12:27:43;;;;;;;72.03;16.83;;;;;;;;;;4921372;29;21462;-86
2021/12/12 12:30:29;;;;;;;49.38;13.55;;;;;;;;;;4905843;29;20127;-86
2021/12/12 12:32:55;;;;;;;70.43;16.20;;;;;;;;;;4921122;29;20032;-85
2021/12/12 12:35:26;;;;;;;65.60;17.60;;;;;;;;;;4911819;29;20399;-85
2021/12/12 12:38:12;;;;;;;69.53;16.77;;;;;;;;;;4922326;29;20035;-86
2021/12/12 12:40:57;;;;;;;54.08;14.23;;;;;;;;;;4921718;29;20066;-86
2021/12/12 12:43:27;;;;;;;40.20;10.20;;;;;;;;;;4906741;29;20047;-86
2021/12/12 12:46:10;;;;;;;66.97;15.15;;;;;;;;;;4894836;29;20586;-86
2021/12/12 12:48:46;;;;;;;82.85;20.90;;;;;;;;;;4924005;29;20055;-87
2021/12/12 12:51:13;;;;;;;;;;;;;;;;;;4918478;29;20035;-85
2021/12/12 12:53:58;;;;;;;57.05;17.80;;;;;;;;;;4924349;29;20505;-86
2021/12/12 13:16:24;;;;;;;49.45;13.00;;;;;;;;;;5178239;23;20081;-85
2021/12/12 13:19:04;;;;;;;47.50;12.70;;;;;;;;;;4848443;29;20127;-84
2021/12/12 13:21:50;;;;;;;35.80;10.13;;;;;;;;;;4866154;29;20066;-85
2021/12/12 13:24:35;;;;;;;13.35;6.07;;;;;;;;;;4861717;29;20097;-84
2021/12/12 13:27:21;;;;;;;41.28;12.48;;;;;;;;;;4867192;29;20686;-82
2021/12/12 13:29:51;;;;;;;30.20;10.40;;;;;;;;;;4867399;29;20044;-82
2021/12/12 14:17:20;;;;;;;39.60;11.30;;;;;;;;;;4872408;28;20729;-88
2021/12/12 14:19:53;;;;;;;29.35;8.98;;;;;;;;;;4829360;29;20281;-89
2021/12/12 14:25:00;;;;;;;35.47;9.93;;;;;;;;;;4872956;23;20607;-84
2021/12/12 14:27:27;;;;;;;28.90;9.02;;;;;;;;;;4866022;29;20033;-86
2021/12/12 14:29:54;;;;;;;19.80;6.80;;;;;;;;;;4850184;29;20080;-86
2021/12/12 14:32:22;;;;;;;39.20;10.15;;;;;;;;;;4866871;29;20502;-86
2021/12/12 14:35:01;;;;;;;25.85;6.55;;;;;;;;;;4868681;29;20029;-86
2021/12/12 14:37:28;;;;;;;34.58;9.85;;;;;;;;;;4874160;29;20556;-85
2021/12/12 14:40:00;;;;;;;18.92;5.50;;;;;;;;;;4871190;29;20545;-86
2021/12/12 14:42:27;;;;;;;34.10;8.98;;;;;;;;;;4866326;29;20037;-86
2021/12/12 14:44:55;;;;;;;29.05;8.93;;;;;;;;;;4871768;29;20147;-85
2021/12/12 14:47:28;;;;;;;32.35;8.10;;;;;;;;;;4846185;29;20037;-85
2021/12/12 14:49:55;;;;;;;26.20;8.55;;;;;;;;;;4864697;29;20739;-86
2021/12/12 14:52:29;;;;;;;7.50;2.67;;;;;;;;;;4850864;29;20041;-86
2021/12/12 14:54:59;;;;;;;30.75;9.23;;;;;;;;;;4868238;29;20042;-85
2021/12/12 14:57:30;;;;;;;28.40;5.95;;;;;;;;;;4855420;29;20033;-86
2021/12/12 14:59:58;;;;;;;39.97;12.27;;;;;;;;;;4870593;29;20029;-84
2021/12/12 15:02:33;;;;;;;30.65;10.30;;;;;;;;;;4865857;29;20040;-86
2021/12/12 15:05:07;;;;;;;29.70;8.00;;;;;;;;;;4851827;29;20181;-86
2021/12/12 15:07:36;;;;;;;35.70;9.90;;;;;;;;;;4856683;29;20081;-84
2021/12/12 15:10:05;;;;;;;37.75;9.50;;;;;;;;;;4847910;29;20179;-85
2021/12/12 15:12:36;;;;;;;37.13;10.23;;;;;;;;;;4865132;29;20029;-85
2021/12/12 15:15:02;;;;;;;34.10;9.23;;;;;;;;;;4857329;29;20045;-86
2021/12/12 15:17:29;;;;;;;30.30;7.88;;;;;;;;;;4857494;29;20092;-84
2021/12/12 15:19:58;;;;;;;39.17;10.10;;;;;;;;;;4865304;29;20131;-85
2021/12/12 15:22:32;;;;;;;48.45;10.77;;;;;;;;;;4836476;29;20067;-86
2021/12/12 15:24:59;;;;;;;19.38;7.22;;;;;;;;;;4860959;29;20069;-84
2021/12/12 15:27:34;;;;;;;35.92;10.40;;;;;;;;;;4849393;29;20120;-83
2021/12/12 15:30:01;;;;;;;34.73;9.90;;;;;;;;;;4854774;29;20041;-84
2021/12/12 15:32:29;;;;;;;28.00;7.88;;;;;;;;;;4865033;29;20064;-85
2021/12/12 15:34:57;;;;;;;79.30;21.95;;;;;;;;;;4849118;29;20044;-84
2021/12/12 15:37:28;;;;;;;59.58;16.27;;;;;;;;;;4851179;29;20053;-86
2021/12/12 15:39:57;;;;;;;53.55;15.68;;;;;;;;;;4862471;29;20041;-86
2021/12/12 15:42:24;;;;;;;55.40;13.95;;;;;;;;;;4842900;29;20052;-85
2021/12/12 15:44:56;;;;;;;40.40;11.27;;;;;;;;;;4850025;29;20508;-86
2021/12/12 15:47:23;;;;;;;63.10;14.00;;;;;;;;;;4867669;29;20044;-85
2021/12/12 15:49:52;;;;;;;43.45;11.40;;;;;;;;;;4865840;29;20356;-85
2021/12/12 15:52:23;;;;;;;47.92;12.82;;;;;;;;;;4859690;29;20037;-85
2021/12/12 15:54:50;;;;;;;41.92;11.90;;;;;;;;;;4869893;29;20064;-85
2021/12/12 15:57:21;;;;;;;34.00;11.50;;;;;;;;;;4848624;29;20488;-85
2021/12/12 15:59:54;;;;;;;51.88;12.70;;;;;;;;;;4868078;29;20114;-83
2021/12/12 16:02:31;;;;;;;47.20;12.23;;;;;;;;;;4853164;29;20409;-84
2021/12/12 16:05:02;;;;;;;34.58;8.80;;;;;;;;;;4866269;29;20038;-85
2021/12/12 16:07:29;;;;;;;42.35;10.95;;;;;;;;;;4867823;29;20096;-85
2021/12/12 16:10:04;;;;;;;50.88;11.07;;;;;;;;;;4867918;29;20476;-86
2021/12/12 16:12:31;;;;;;;55.08;12.88;;;;;;;;;;4863773;29;20041;-85
2021/12/12 16:14:58;;;;;;;47.63;11.68;;;;;;;;;;4850983;29;20053;-84
2021/12/12 16:17:37;;;;;;;39.92;10.85;;;;;;;;;;4850552;29;20599;-85
2021/12/12 16:20:15;;;;;;;43.97;12.65;;;;;;;;;;4850402;29;20096;-84
2021/12/12 16:22:47;;;;;;;48.13;11.45;;;;;;;;;;4865969;29;20192;-85
2021/12/12 16:25:14;;;;;;;49.03;12.63;;;;;;;;;;4845993;29;20045;-85
2021/12/12 16:27:44;;;;;;;45.30;10.40;;;;;;;;;;4848229;29;20033;-85